Fisher, Arkansas
Current Conditions -  °F | °C
As of 6:20 AM on Friday 24 Oct 2014 (Local Time) from KM19 Reporting Station
Haze Haze  
Wind Chill: 45°   Ceiling: 200
Heat Index: 45°   Visibility: 1.7mi
Dew Point: 45°   Wind: 0mph
Humidity: 100%   Direction: NA
Pressure: 30.16"   Gusts: NA
Location:  35.49°N, 90.97°W
Report Text: KM19 241120Z AUTO 00000KT 1 3/4SM BR BKN002 07/07 A3016 RMK AO2
Loading
Personal Weather Stations






























Interactive Weather Map
Tropical Storm Tracking
New forecast layout! Learn more

10-Day Weather Forecast

Advertisements
Track Severe Weather on mobile